createdAt,value
2022-08-23T00:00:18.773Z,70
2022-08-23T00:11:39.357Z,78
2022-08-23T00:17:35.476Z,76
2022-08-23T00:23:16.745Z,68
2022-08-23T00:28:57.114Z,64
2022-08-23T00:34:38.164Z,64
2022-08-23T00:40:19.236Z,72
2022-08-23T00:45:59.541Z,68
2022-08-23T00:51:53.919Z,66
2022-08-23T00:57:34.606Z,62
2022-08-23T01:03:20.867Z,66
2022-08-23T01:09:01.244Z,74
2022-08-23T01:14:41.526Z,70
2022-08-23T01:20:32.652Z,74
2022-08-23T01:26:22.248Z,68
2022-08-23T01:32:02.764Z,72
2022-08-23T01:37:42.945Z,64
2022-08-23T01:43:23.355Z,58
2022-08-23T01:49:08.890Z,60
2022-08-23T01:54:49.159Z,70
2022-08-23T02:00:29.842Z,70
2022-08-23T02:11:50.649Z,70
2022-08-23T02:17:31.319Z,64
2022-08-23T02:23:11.610Z,74
2022-08-23T02:28:56.620Z,72
2022-08-23T02:34:36.799Z,68
2022-08-23T02:40:17.453Z,66
2022-08-23T02:45:57.877Z,66
2022-08-23T02:51:37.988Z,64
2022-08-23T02:57:18.181Z,72
2022-08-23T03:02:58.304Z,72
2022-08-23T03:08:38.691Z,70
2022-08-23T03:14:19.042Z,74
2022-08-23T03:19:59.200Z,76
2022-08-23T03:25:39.368Z,72
2022-08-23T03:31:19.561Z,70
2022-08-23T03:36:59.891Z,58
2022-08-23T03:42:40.719Z,62
2022-08-23T03:48:21.118Z,72
2022-08-23T03:54:01.383Z,64
2022-08-23T03:59:41.874Z,64
2022-08-23T04:05:22.135Z,66
2022-08-23T04:11:04.506Z,66
2022-08-23T04:22:25.559Z,70
2022-08-23T04:28:05.888Z,76
2022-08-23T04:33:53.143Z,68
2022-08-23T04:39:52.000Z,70
2022-08-23T04:45:34.618Z,72
2022-08-23T04:51:14.933Z,62
2022-08-23T04:56:55.238Z,64
2022-08-23T05:02:35.522Z,72
2022-08-23T05:08:16.348Z,64
2022-08-23T05:13:57.040Z,66
2022-08-23T05:19:47.566Z,68
2022-08-23T05:25:31.206Z,72
2022-08-23T05:31:12.266Z,70
2022-08-23T05:36:56.943Z,66
2022-08-23T05:42:37.173Z,66
2022-08-23T05:48:18.761Z,70
2022-08-23T05:53:59.495Z,62
2022-08-23T05:59:40.140Z,66
2022-08-23T06:11:02.137Z,72
2022-08-23T06:16:42.754Z,80
2022-08-23T06:22:23.553Z,88
2022-08-23T06:28:04.050Z,66
2022-08-23T06:33:45.084Z,78
2022-08-23T06:39:25.601Z,74
2022-08-23T06:45:05.753Z,70
2022-08-23T06:50:48.520Z,76
2022-08-23T06:56:28.883Z,86
2022-08-23T07:02:09.805Z,88
2022-08-23T07:07:50.635Z,80
2022-08-23T07:13:30.709Z,86
2022-08-23T07:19:11.177Z,84
2022-08-23T07:24:51.344Z,80
2022-08-23T07:30:31.936Z,78
2022-08-23T07:36:12.394Z,28
2022-08-23T07:41:53.160Z,24
2022-08-23T07:47:33.719Z,14
2022-08-23T07:53:39.734Z,34
2022-08-23T08:05:04.287Z,16
2022-08-23T08:10:44.267Z,32
2022-08-23T08:16:24.739Z,26
2022-08-23T08:22:05.252Z,8
2022-08-23T08:27:54.376Z,12
2022-08-23T08:33:35.805Z,12
2022-08-23T08:39:15.796Z,10
2022-08-23T08:44:55.871Z,6
2022-08-23T08:50:36.337Z,8
2022-08-23T09:07:38.996Z,4
2022-08-23T09:13:20.528Z,0
2022-08-23T09:19:00.918Z,0
2022-08-23T09:24:43.589Z,0
2022-08-23T09:30:23.524Z,2
2022-08-23T09:36:03.938Z,2
2022-08-23T09:41:46.172Z,2
2022-08-23T10:02:41.866Z,0
2022-08-23T10:08:43.922Z,0
2022-08-23T10:14:51.152Z,2
2022-08-23T10:20:31.678Z,6
2022-08-23T10:41:33.108Z,2
2022-08-23T10:47:14.097Z,2
2022-08-23T10:58:03.559Z,6
2022-08-23T14:47:14.260Z,78
2022-08-23T14:52:54.124Z,78
2022-08-23T14:58:34.350Z,88
2022-08-23T15:04:14.900Z,78
2022-08-23T15:09:55.248Z,86
2022-08-23T15:15:35.314Z,80
2022-08-23T15:21:18.385Z,84
2022-08-23T15:26:58.810Z,86
2022-08-23T15:33:03.709Z,84
2022-08-23T15:38:44.464Z,80
2022-08-23T15:44:24.457Z,76
2022-08-23T15:50:04.692Z,82
2022-08-23T15:55:48.211Z,84
2022-08-23T16:01:29.056Z,82
2022-08-23T16:12:52.223Z,78
2022-08-23T16:18:32.654Z,86
2022-08-23T16:24:12.887Z,80
2022-08-23T16:29:54.307Z,82
2022-08-23T16:35:34.443Z,84
2022-08-23T16:41:14.682Z,88
2022-08-23T16:46:57.519Z,84
2022-08-23T16:52:40.925Z,80
2022-08-23T16:58:21.239Z,76
2022-08-23T17:04:01.510Z,82
2022-08-23T17:09:41.750Z,80
2022-08-23T17:15:21.801Z,86
2022-08-23T17:21:02.062Z,80
2022-08-23T17:26:42.677Z,78
2022-08-23T17:32:22.874Z,80
2022-08-23T17:38:13.661Z,84
2022-08-23T17:44:06.899Z,78
2022-08-23T17:49:46.974Z,78
2022-08-23T18:01:11.703Z,74
2022-08-23T18:06:51.939Z,76
2022-08-23T18:12:32.224Z,72
2022-08-23T18:18:12.361Z,78
2022-08-23T18:23:52.476Z,72
2022-08-23T18:29:32.774Z,72
2022-08-23T18:35:20.329Z,74
2022-08-23T18:41:20.566Z,72
2022-08-23T18:47:05.976Z,68
2022-08-23T18:52:46.340Z,80
2022-08-23T18:58:33.937Z,80
2022-08-23T19:04:17.438Z,70
2022-08-23T19:10:00.284Z,88
2022-08-23T19:15:43.280Z,70
2022-08-23T19:21:23.387Z,70
2022-08-23T19:27:06.715Z,70
2022-08-23T19:32:53.428Z,72
2022-08-23T19:38:38.954Z,78
2022-08-23T19:44:25.439Z,74
2022-08-23T20:01:34.403Z,72
2022-08-23T20:12:16.785Z,106
2022-08-23T20:17:56.868Z,72
2022-08-23T20:23:36.995Z,76
2022-08-23T20:29:17.027Z,82
2022-08-23T20:34:57.501Z,70
2022-08-23T20:40:40.490Z,78
2022-08-23T20:46:21.276Z,66
2022-08-23T20:52:01.899Z,72
2022-08-23T20:57:45.165Z,66
2022-08-23T21:03:25.367Z,76
2022-08-23T21:09:08.406Z,76
2022-08-23T21:14:51.185Z,66
2022-08-23T21:20:34.321Z,72
2022-08-23T21:26:14.603Z,78
2022-08-23T21:31:54.508Z,76
2022-08-23T21:37:37.609Z,80
2022-08-23T21:43:17.947Z,72
2022-08-23T21:49:04.063Z,60
2022-08-23T21:54:44.529Z,76
2022-08-23T22:00:28.235Z,76
2022-08-23T22:06:08.438Z,78
2022-08-23T22:11:51.131Z,66
2022-08-23T22:17:31.360Z,76
2022-08-23T22:23:11.577Z,76
2022-08-23T22:28:51.821Z,80
2022-08-23T22:34:32.020Z,68
2022-08-23T22:40:14.152Z,68
2022-08-23T22:45:55.286Z,74
2022-08-23T22:51:36.407Z,68
2022-08-23T22:57:16.458Z,70
2022-08-23T23:02:56.696Z,76
2022-08-23T23:08:36.921Z,76
2022-08-23T23:14:17.352Z,70
2022-08-23T23:19:57.366Z,76
2022-08-23T23:25:37.606Z,72
2022-08-23T23:31:18.632Z,74
2022-08-23T23:36:59.369Z,74
2022-08-23T23:42:39.595Z,70
2022-08-23T23:48:19.834Z,66
2022-08-23T23:54:01.675Z,66
